This is the latest recevied weather packets stored in our database for station/object KT2UU-13. If no packets are shown the sender has not sent any weather packets the latest 10 day(s).
| Time | Temp. | Humidity | Pressure | Rain* | Wind** | Luminosity | Snow |
|---|---|---|---|---|---|---|---|
| 1778145798 | 17.22° C | 99% | 1011 hPa | 4.83 mm | - | - | - |
| 1778145494 | 17.22° C | 99% | 1011.3 hPa | 6.1 mm | - | - | - |
| 1778145191 | 17.22° C | 99% | 1011.6 hPa | 4.83 mm | - | - | - |
| 1778144886 | 17.22° C | 99% | 1012 hPa | 0 mm | - | - | - |
| 1778144583 | 17.22° C | 99% | 1011.8 hPa | 0 mm | - | - | - |
| 1778144280 | 17.22° C | 99% | 1011.4 hPa | 1.27 mm | - | - | - |
| 1778143674 | 17.22° C | 99% | 1011.9 hPa | 0 mm | - | - | - |
| 1778143370 | 17.22° C | 99% | 1011.9 hPa | 0 mm | - | - | - |
| 1778143068 | 17.22° C | 99% | 1011.6 hPa | 0 mm | - | - | - |
| 1778142764 | 17.22° C | 99% | 1011.4 hPa | 1.78 mm | - | - | - |
| 1778142460 | 17.22° C | 99% | 1011.4 hPa | 1.78 mm | - | - | - |
| 1778142156 | 17.22° C | 99% | 1011.8 hPa | 0 mm | - | - | - |
| 1778141853 | 17.22° C | 99% | 1012.1 hPa | 0 mm | - | - | - |
| 1778141549 | 17.22° C | 99% | 1011.9 hPa | 1.27 mm | - | - | - |
| 1778141246 | 17.22° C | 99% | 1012.2 hPa | 1.27 mm | - | - | - |
| 1778140942 | 17.22° C | 99% | 1011.8 hPa | 1.78 mm | - | - | - |
| 1778140637 | 17.22° C | 99% | 1011.6 hPa | 1.78 mm | - | - | - |
| 1778140334 | 17.22° C | 99% | 1011.7 hPa | 0 mm | - | - | - |
| 1778140030 | 17.22° C | 99% | 1012 hPa | 0 mm | - | - | - |
| 1778139729 | 16.67° C | 99% | 1011.8 hPa | 0 mm | - | - | - |
| 1778139425 | 17.22° C | 99% | 1012 hPa | 1.27 mm | - | - | - |
| 1778139121 | 17.22° C | 99% | 1011.9 hPa | 3.05 mm | - | - | - |
| 1778138819 | 17.22° C | 99% | 1012 hPa | 3.05 mm | - | - | - |
| 1778138516 | 17.22° C | 99% | 1012.2 hPa | 1.27 mm | - | - | - |
| 1778138214 | 17.22° C | 99% | 1012.2 hPa | 1.78 mm | - | - | - |
* Rain latest hour (hover to see other rain measurements)
** Current wind speed in m/s (hover to see current wind gust speed)